Time;durP1;ratioP1;P1;durP2;ratioP2;P2;SDS_P1;SDS_P2;PMS_P1;PMS_P2;Temp;Humidity;BMP_temperature;BMP_pressure;BME280_temperature;BME280_humidity;BME280_pressure;Samples;Min_cycle;Max_cycle;Signal;HPM_P1;HPM_P2
2024/04/11 00:02:13;;;;;;;2.5;1.8;;;;;;;;;;;;;
2024/04/11 00:04:39;;;;;;;3;1.7;;;;;;;;;;;;;
2024/04/11 00:07:04;;;;;;;2.6;1.6;;;;;;;;;;;;;
2024/04/11 00:09:29;;;;;;;3.8;2;;;;;;;;;;;;;
2024/04/11 00:11:54;;;;;;;2.5;1.7;;;;;;;;;;;;;
2024/04/11 00:14:19;;;;;;;4;1.9;;;;;;;;;;;;;
2024/04/11 00:16:44;;;;;;;3.9;2;;;;;;;;;;;;;
2024/04/11 00:19:09;;;;;;;3.7;1.5;;;;;;;;;;;;;
2024/04/11 00:21:34;;;;;;;2.9;1.7;;;;;;;;;;;;;
2024/04/11 00:23:59;;;;;;;3;1.7;;;;;;;;;;;;;
2024/04/11 00:26:26;;;;;;;4;1.9;;;;;;;;;;;;;
2024/04/11 00:28:49;;;;;;;2.5;1.3;;;;;;;;;;;;;
2024/04/11 00:31:15;;;;;;;3.9;1.6;;;;;;;;;;;;;
2024/04/11 00:33:54;;;;;;;3.7;2;;;;;;;;;;;;;
2024/04/11 00:36:05;;;;;;;5.3;1.8;;;;;;;;;;;;;
2024/04/11 00:38:33;;;;;;;5.1;1.9;;;;;;;;;;;;;
2024/04/11 00:40:56;;;;;;;3.7;1.8;;;;;;;;;;;;;
2024/04/11 00:43:20;;;;;;;3.1;2;;;;;;;;;;;;;
2024/04/11 00:45:47;;;;;;;3.8;1.9;;;;;;;;;;;;;
2024/04/11 00:48:11;;;;;;;3.1;2.2;;;;;;;;;;;;;
2024/04/11 00:50:35;;;;;;;3.1;1.8;;;;;;;;;;;;;
2024/04/11 00:53:01;;;;;;;4.1;1.7;;;;;;;;;;;;;
2024/04/11 00:55:26;;;;;;;2.7;2.2;;;;;;;;;;;;;
2024/04/11 00:57:51;;;;;;;5.1;2.2;;;;;;;;;;;;;
2024/04/11 01:00:18;;;;;;;6.2;2.4;;;;;;;;;;;;;
2024/04/11 01:02:42;;;;;;;2.7;2;;;;;;;;;;;;;
2024/04/11 01:05:06;;;;;;;3.4;1.8;;;;;;;;;;;;;
2024/04/11 01:07:32;;;;;;;3.5;1.9;;;;;;;;;;;;;
2024/04/11 01:09:56;;;;;;;4.3;1.8;;;;;;;;;;;;;
2024/04/11 01:12:22;;;;;;;2.8;1.9;;;;;;;;;;;;;
2024/04/11 01:14:47;;;;;;;2.7;1.7;;;;;;;;;;;;;
2024/04/11 01:17:13;;;;;;;3.5;1.8;;;;;;;;;;;;;
2024/04/11 01:19:37;;;;;;;2.9;1.8;;;;;;;;;;;;;
2024/04/11 01:22:02;;;;;;;4.3;1.8;;;;;;;;;;;;;
2024/04/11 01:24:27;;;;;;;2.9;1.5;;;;;;;;;;;;;
2024/04/11 01:26:52;;;;;;;2.4;1.7;;;;;;;;;;;;;
2024/04/11 01:29:17;;;;;;;1.9;1.3;;;;;;;;;;;;;
2024/04/11 01:31:43;;;;;;;2.7;1.8;;;;;;;;;;;;;
2024/04/11 01:34:08;;;;;;;2.6;1.3;;;;;;;;;;;;;
2024/04/11 01:36:33;;;;;;;2.5;1.3;;;;;;;;;;;;;
2024/04/11 01:38:58;;;;;;;2.2;1.4;;;;;;;;;;;;;
2024/04/11 01:41:23;;;;;;;2.5;1.9;;;;;;;;;;;;;
2024/04/11 01:43:48;;;;;;;1.7;1.5;;;;;;;;;;;;;
2024/04/11 01:46:16;;;;;;;2;1.4;;;;;;;;;;;;;
2024/04/11 01:48:40;;;;;;;3.1;1.4;;;;;;;;;;;;;
2024/04/11 01:51:03;;;;;;;2.2;1.5;;;;;;;;;;;;;
2024/04/11 01:53:28;;;;;;;2.1;1.4;;;;;;;;;;;;;
2024/04/11 01:55:53;;;;;;;1.7;1.4;;;;;;;;;;;;;
2024/04/11 01:58:19;;;;;;;2.5;1.5;;;;;;;;;;;;;
2024/04/11 02:00:44;;;;;;;4.2;1.7;;;;;;;;;;;;;
2024/04/11 02:03:09;;;;;;;1.9;1.5;;;;;;;;;;;;;
2024/04/11 02:05:34;;;;;;;1.6;1.2;;;;;;;;;;;;;
2024/04/11 02:08:01;;;;;;;2.7;1.7;;;;;;;;;;;;;
2024/04/11 02:10:24;;;;;;;1.9;1.5;;;;;;;;;;;;;
2024/04/11 02:12:49;;;;;;;5;1.8;;;;;;;;;;;;;
2024/04/11 02:15:14;;;;;;;2.1;1.7;;;;;;;;;;;;;
2024/04/11 02:17:39;;;;;;;2.4;1.4;;;;;;;;;;;;;
2024/04/11 02:20:10;;;;;;;3;1.7;;;;;;;;;;;;;
2024/04/11 02:22:30;;;;;;;3.9;1.6;;;;;;;;;;;;;
2024/04/11 02:24:55;;;;;;;3.5;1.9;;;;;;;;;;;;;
2024/04/11 02:27:20;;;;;;;2.7;1.7;;;;;;;;;;;;;
2024/04/11 02:29:47;;;;;;;2.8;1.5;;;;;;;;;;;;;
2024/04/11 02:32:10;;;;;;;3.7;1.7;;;;;;;;;;;;;
2024/04/11 02:34:36;;;;;;;2.3;1.5;;;;;;;;;;;;;
2024/04/11 02:37:00;;;;;;;2.1;1.5;;;;;;;;;;;;;
2024/04/11 02:39:26;;;;;;;2.5;1.8;;;;;;;;;;;;;
2024/04/11 02:41:51;;;;;;;2.2;1.6;;;;;;;;;;;;;
2024/04/11 02:44:18;;;;;;;4;1.3;;;;;;;;;;;;;
2024/04/11 02:46:41;;;;;;;2.8;1.5;;;;;;;;;;;;;
2024/04/11 02:49:06;;;;;;;3.4;1.5;;;;;;;;;;;;;
2024/04/11 02:51:31;;;;;;;2.9;1.4;;;;;;;;;;;;;
2024/04/11 02:53:57;;;;;;;3.4;1.4;;;;;;;;;;;;;
2024/04/11 02:56:22;;;;;;;1.7;1.4;;;;;;;;;;;;;
2024/04/11 02:58:46;;;;;;;1.7;1.2;;;;;;;;;;;;;
2024/04/11 03:01:14;;;;;;;3.3;1.4;;;;;;;;;;;;;
2024/04/11 03:03:37;;;;;;;2.7;2;;;;;;;;;;;;;
2024/04/11 03:06:02;;;;;;;2.4;1.6;;;;;;;;;;;;;
2024/04/11 03:08:28;;;;;;;2.5;1.9;;;;;;;;;;;;;
2024/04/11 03:10:52;;;;;;;2.7;1.7;;;;;;;;;;;;;
2024/04/11 03:13:17;;;;;;;2.9;1.5;;;;;;;;;;;;;
2024/04/11 03:15:42;;;;;;;2.3;1.5;;;;;;;;;;;;;
2024/04/11 03:18:08;;;;;;;2.4;1.4;;;;;;;;;;;;;
2024/04/11 03:20:32;;;;;;;2.2;1.3;;;;;;;;;;;;;
2024/04/11 03:22:57;;;;;;;1.3;1.2;;;;;;;;;;;;;
2024/04/11 03:25:23;;;;;;;2.9;1.3;;;;;;;;;;;;;
2024/04/11 03:27:48;;;;;;;2.9;1.6;;;;;;;;;;;;;
2024/04/11 03:30:13;;;;;;;3.5;1.5;;;;;;;;;;;;;
2024/04/11 03:32:38;;;;;;;2.7;1.1;;;;;;;;;;;;;
2024/04/11 03:35:04;;;;;;;1.6;1.2;;;;;;;;;;;;;
2024/04/11 03:37:28;;;;;;;2.5;1.5;;;;;;;;;;;;;
2024/04/11 03:39:54;;;;;;;1.2;1.1;;;;;;;;;;;;;
2024/04/11 03:42:19;;;;;;;3.2;1.3;;;;;;;;;;;;;
2024/04/11 03:44:44;;;;;;;2.8;1.3;;;;;;;;;;;;;
2024/04/11 03:47:09;;;;;;;1.6;1.4;;;;;;;;;;;;;
2024/04/11 03:49:34;;;;;;;4;1.8;;;;;;;;;;;;;
2024/04/11 03:51:59;;;;;;;1.4;1.1;;;;;;;;;;;;;
2024/04/11 03:54:25;;;;;;;1.6;1.5;;;;;;;;;;;;;
2024/04/11 03:56:50;;;;;;;2.8;1.2;;;;;;;;;;;;;
2024/04/11 03:59:15;;;;;;;1.2;1.1;;;;;;;;;;;;;
2024/04/11 04:02:31;;;;;;;2.2;1.1;;;;;;;;;;;;;
2024/04/11 04:04:56;;;;;;;3;1.6;;;;;;;;;;;;;
2024/04/11 04:07:21;;;;;;;1.3;1.2;;;;;;;;;;;;;
2024/04/11 04:09:48;;;;;;;2.9;1.4;;;;;;;;;;;;;
2024/04/11 04:12:11;;;;;;;3;1.5;;;;;;;;;;;;;
2024/04/11 04:14:36;;;;;;;1.6;1.3;;;;;;;;;;;;;
2024/04/11 04:17:01;;;;;;;1.3;1.2;;;;;;;;;;;;;
2024/04/11 04:19:27;;;;;;;1.9;1.3;;;;;;;;;;;;;
2024/04/11 04:21:52;;;;;;;1.6;1.2;;;;;;;;;;;;;
2024/04/11 04:24:17;;;;;;;2.2;1.4;;;;;;;;;;;;;
2024/04/11 04:26:42;;;;;;;2.5;1.4;;;;;;;;;;;;;
2024/04/11 04:29:08;;;;;;;2.2;1.4;;;;;;;;;;;;;
2024/04/11 04:31:32;;;;;;;2.3;1.8;;;;;;;;;;;;;
2024/04/11 04:33:57;;;;;;;2.4;1.6;;;;;;;;;;;;;
2024/04/11 04:36:24;;;;;;;2;1.8;;;;;;;;;;;;;
2024/04/11 04:38:49;;;;;;;3.3;1.8;;;;;;;;;;;;;
2024/04/11 04:41:12;;;;;;;2.7;1.6;;;;;;;;;;;;;
2024/04/11 04:43:38;;;;;;;3;1.5;;;;;;;;;;;;;
2024/04/11 04:46:03;;;;;;;3;1.7;;;;;;;;;;;;;
2024/04/11 04:48:29;;;;;;;2;1.5;;;;;;;;;;;;;
2024/04/11 04:50:53;;;;;;;3.8;2;;;;;;;;;;;;;
2024/04/11 04:53:18;;;;;;;2.9;2.2;;;;;;;;;;;;;
2024/04/11 04:55:44;;;;;;;4.3;2;;;;;;;;;;;;;
2024/04/11 04:58:08;;;;;;;3.9;1.9;;;;;;;;;;;;;
2024/04/11 05:00:34;;;;;;;3.7;1.7;;;;;;;;;;;;;
2024/04/11 05:02:58;;;;;;;4.1;1.9;;;;;;;;;;;;;
2024/04/11 05:05:24;;;;;;;5.2;1.4;;;;;;;;;;;;;
2024/04/11 05:07:52;;;;;;;2.4;1.6;;;;;;;;;;;;;
2024/04/11 05:10:14;;;;;;;4;1.6;;;;;;;;;;;;;
2024/04/11 05:12:49;;;;;;;1.4;1.3;;;;;;;;;;;;;
2024/04/11 05:15:12;;;;;;;2.4;1.5;;;;;;;;;;;;;
2024/04/11 05:17:32;;;;;;;3.3;1.8;;;;;;;;;;;;;
2024/04/11 05:19:55;;;;;;;3.4;1.7;;;;;;;;;;;;;
2024/04/11 05:22:22;;;;;;;2.5;1.7;;;;;;;;;;;;;
2024/04/11 05:24:44;;;;;;;2.6;1.5;;;;;;;;;;;;;
2024/04/11 05:27:09;;;;;;;3.1;1.7;;;;;;;;;;;;;
2024/04/11 05:29:36;;;;;;;4;1.9;;;;;;;;;;;;;
2024/04/11 05:32:04;;;;;;;3;2;;;;;;;;;;;;;
2024/04/11 05:34:26;;;;;;;2.4;1.8;;;;;;;;;;;;;
2024/04/11 05:36:50;;;;;;;2.4;1.9;;;;;;;;;;;;;
2024/04/11 05:39:20;;;;;;;4.4;2;;;;;;;;;;;;;
2024/04/11 05:41:43;;;;;;;4.2;1.7;;;;;;;;;;;;;
2024/04/11 05:44:06;;;;;;;3.4;1.8;;;;;;;;;;;;;
2024/04/11 05:46:30;;;;;;;5.7;2.2;;;;;;;;;;;;;
2024/04/11 05:48:55;;;;;;;2.6;1.6;;;;;;;;;;;;;
2024/04/11 05:51:21;;;;;;;4.6;1.9;;;;;;;;;;;;;
2024/04/11 05:53:46;;;;;;;1.8;1.4;;;;;;;;;;;;;
2024/04/11 05:56:11;;;;;;;1.7;1.3;;;;;;;;;;;;;
2024/04/11 05:58:38;;;;;;;3.2;1.3;;;;;;;;;;;;;
2024/04/11 06:01:01;;;;;;;2.7;1.4;;;;;;;;;;;;;
2024/04/11 06:03:28;;;;;;;4.2;1.4;;;;;;;;;;;;;
2024/04/11 06:05:51;;;;;;;3.9;1.5;;;;;;;;;;;;;
2024/04/11 06:08:16;;;;;;;3.8;1.7;;;;;;;;;;;;;
2024/04/11 06:10:41;;;;;;;2.9;1.7;;;;;;;;;;;;;
2024/04/11 06:13:06;;;;;;;2;1.7;;;;;;;;;;;;;
2024/04/11 06:15:31;;;;;;;3.1;1.6;;;;;;;;;;;;;
2024/04/11 06:17:57;;;;;;;1.6;1.3;;;;;;;;;;;;;
2024/04/11 06:20:24;;;;;;;1.4;1;;;;;;;;;;;;;
2024/04/11 06:22:52;;;;;;;3.4;1.7;;;;;;;;;;;;;
2024/04/11 06:25:13;;;;;;;5.3;1.9;;;;;;;;;;;;;
2024/04/11 06:27:40;;;;;;;4.2;1.7;;;;;;;;;;;;;
2024/04/11 06:30:03;;;;;;;3;1.5;;;;;;;;;;;;;
2024/04/11 06:32:31;;;;;;;2.2;1.4;;;;;;;;;;;;;
2024/04/11 06:34:53;;;;;;;2.2;1.3;;;;;;;;;;;;;
2024/04/11 06:37:20;;;;;;;1.9;1.1;;;;;;;;;;;;;
2024/04/11 06:39:43;;;;;;;10.5;4.9;;;;;;;;;;;;;
2024/04/11 06:42:13;;;;;;;4.8;2.7;;;;;;;;;;;;;
2024/04/11 06:44:34;;;;;;;3.9;1.9;;;;;;;;;;;;;
2024/04/11 06:46:58;;;;;;;5.3;2.2;;;;;;;;;;;;;
2024/04/11 06:49:23;;;;;;;3.5;1.7;;;;;;;;;;;;;
2024/04/11 06:51:48;;;;;;;2.8;1.8;;;;;;;;;;;;;
2024/04/11 06:54:18;;;;;;;3.2;1.9;;;;;;;;;;;;;
2024/04/11 06:56:38;;;;;;;2.9;1.5;;;;;;;;;;;;;
2024/04/11 06:59:10;;;;;;;2.5;1.4;;;;;;;;;;;;;
2024/04/11 07:01:29;;;;;;;3.9;1.4;;;;;;;;;;;;;
2024/04/11 07:03:57;;;;;;;2.9;1.7;;;;;;;;;;;;;
2024/04/11 07:06:21;;;;;;;5.8;1.5;;;;;;;;;;;;;
2024/04/11 07:08:44;;;;;;;4;1.3;;;;;;;;;;;;;
2024/04/11 07:11:19;;;;;;;2.4;1.2;;;;;;;;;;;;;
2024/04/11 07:13:34;;;;;;;2.3;1.1;;;;;;;;;;;;;
2024/04/11 07:16:01;;;;;;;1.8;1.1;;;;;;;;;;;;;
2024/04/11 07:18:34;;;;;;;2.5;1;;;;;;;;;;;;;
2024/04/11 07:20:50;;;;;;;3.1;1.3;;;;;;;;;;;;;
2024/04/11 07:23:14;;;;;;;1.4;0.9;;;;;;;;;;;;;
2024/04/11 07:25:40;;;;;;;1.7;1.1;;;;;;;;;;;;;
2024/04/11 07:28:07;;;;;;;2.4;1;;;;;;;;;;;;;
2024/04/11 07:30:31;;;;;;;1.1;0.9;;;;;;;;;;;;;
2024/04/11 07:32:56;;;;;;;3.1;1.2;;;;;;;;;;;;;
2024/04/11 07:35:20;;;;;;;1.6;0.9;;;;;;;;;;;;;
2024/04/11 07:37:45;;;;;;;2.2;1;;;;;;;;;;;;;
2024/04/11 07:40:27;;;;;;;4.3;1;;;;;;;;;;;;;
2024/04/11 07:42:55;;;;;;;1.3;1.1;;;;;;;;;;;;;
2024/04/11 07:45:01;;;;;;;1.3;1.1;;;;;;;;;;;;;
2024/04/11 07:47:29;;;;;;;2.5;1.1;;;;;;;;;;;;;
2024/04/11 07:49:52;;;;;;;2.6;0.9;;;;;;;;;;;;;
2024/04/11 07:52:16;;;;;;;1.5;0.9;;;;;;;;;;;;;
2024/04/11 07:54:42;;;;;;;1.1;0.9;;;;;;;;;;;;;
2024/04/11 07:57:07;;;;;;;1.1;0.8;;;;;;;;;;;;;
2024/04/11 07:59:32;;;;;;;2.1;0.8;;;;;;;;;;;;;
2024/04/11 08:01:56;;;;;;;2;0.9;;;;;;;;;;;;;
2024/04/11 08:04:22;;;;;;;2.8;0.9;;;;;;;;;;;;;
2024/04/11 08:06:47;;;;;;;1.5;0.9;;;;;;;;;;;;;
2024/04/11 08:09:12;;;;;;;1.1;0.8;;;;;;;;;;;;;
2024/04/11 08:11:38;;;;;;;0.8;0.7;;;;;;;;;;;;;
2024/04/11 08:14:03;;;;;;;1.2;0.8;;;;;;;;;;;;;
2024/04/11 08:16:28;;;;;;;1.6;1;;;;;;;;;;;;;
2024/04/11 08:18:52;;;;;;;1.6;1.1;;;;;;;;;;;;;
2024/04/11 08:21:18;;;;;;;3.2;0.8;;;;;;;;;;;;;
2024/04/11 08:23:43;;;;;;;1.5;0.8;;;;;;;;;;;;;
2024/04/11 08:26:12;;;;;;;1.4;0.9;;;;;;;;;;;;;
2024/04/11 08:28:37;;;;;;;1.5;0.8;;;;;;;;;;;;;
2024/04/11 08:30:58;;;;;;;1.1;0.9;;;;;;;;;;;;;
2024/04/11 08:33:23;;;;;;;2.2;0.8;;;;;;;;;;;;;
2024/04/11 08:35:52;;;;;;;2.8;0.9;;;;;;;;;;;;;
2024/04/11 08:38:15;;;;;;;1.3;0.8;;;;;;;;;;;;;
2024/04/11 08:40:40;;;;;;;1.7;0.7;;;;;;;;;;;;;
2024/04/11 08:43:04;;;;;;;1.6;0.9;;;;;;;;;;;;;
2024/04/11 08:45:30;;;;;;;1.5;0.6;;;;;;;;;;;;;
2024/04/11 08:47:54;;;;;;;1.6;0.7;;;;;;;;;;;;;
2024/04/11 08:50:19;;;;;;;2.2;0.7;;;;;;;;;;;;;
2024/04/11 08:52:44;;;;;;;1;0.7;;;;;;;;;;;;;
2024/04/11 08:55:10;;;;;;;1.4;0.7;;;;;;;;;;;;;
2024/04/11 08:57:34;;;;;;;0.7;0.7;;;;;;;;;;;;;
2024/04/11 08:59:59;;;;;;;1.8;0.8;;;;;;;;;;;;;
2024/04/11 09:02:25;;;;;;;0.7;0.6;;;;;;;;;;;;;
2024/04/11 09:04:49;;;;;;;1.3;0.8;;;;;;;;;;;;;
2024/04/11 09:07:22;;;;;;;1.1;0.6;;;;;;;;;;;;;
2024/04/11 09:09:40;;;;;;;1.1;0.9;;;;;;;;;;;;;
2024/04/11 09:12:05;;;;;;;1.1;0.9;;;;;;;;;;;;;
2024/04/11 09:14:30;;;;;;;0.7;0.7;;;;;;;;;;;;;
2024/04/11 09:17:00;;;;;;;1.4;0.9;;;;;;;;;;;;;
2024/04/11 09:19:22;;;;;;;1.5;1;;;;;;;;;;;;;
2024/04/11 09:21:45;;;;;;;1.4;1.1;;;;;;;;;;;;;
2024/04/11 09:24:16;;;;;;;2.6;1.1;;;;;;;;;;;;;
2024/04/11 09:26:37;;;;;;;1.2;0.9;;;;;;;;;;;;;
2024/04/11 09:29:04;;;;;;;1.8;0.8;;;;;;;;;;;;;
2024/04/11 09:31:26;;;;;;;2.7;0.8;;;;;;;;;;;;;
2024/04/11 09:33:53;;;;;;;2;1;;;;;;;;;;;;;
2024/04/11 09:36:16;;;;;;;1;0.9;;;;;;;;;;;;;
2024/04/11 09:38:42;;;;;;;1.5;0.8;;;;;;;;;;;;;
2024/04/11 09:41:11;;;;;;;1.1;0.8;;;;;;;;;;;;;
2024/04/11 09:43:34;;;;;;;1.7;0.8;;;;;;;;;;;;;
2024/04/11 09:46:04;;;;;;;2.8;0.8;;;;;;;;;;;;;
2024/04/11 09:48:24;;;;;;;1.7;0.8;;;;;;;;;;;;;
2024/04/11 09:50:48;;;;;;;2.2;0.7;;;;;;;;;;;;;
2024/04/11 09:53:25;;;;;;;1.1;0.8;;;;;;;;;;;;;
2024/04/11 09:55:37;;;;;;;3.2;1.1;;;;;;;;;;;;;
2024/04/11 09:58:04;;;;;;;1.5;0.8;;;;;;;;;;;;;
2024/04/11 10:00:48;;;;;;;1.5;1;;;;;;;;;;;;;
2024/04/11 10:02:56;;;;;;;2.1;1.2;;;;;;;;;;;;;
2024/04/11 10:05:23;;;;;;;1.8;1;;;;;;;;;;;;;
2024/04/11 10:07:46;;;;;;;0.8;0.8;;;;;;;;;;;;;
2024/04/11 10:10:11;;;;;;;1.2;0.9;;;;;;;;;;;;;
2024/04/11 10:12:36;;;;;;;1.6;0.8;;;;;;;;;;;;;
2024/04/11 10:15:06;;;;;;;1.8;1.1;;;;;;;;;;;;;
2024/04/11 10:17:28;;;;;;;1.3;1;;;;;;;;;;;;;
2024/04/11 10:19:53;;;;;;;1.5;1;;;;;;;;;;;;;
2024/04/11 10:22:24;;;;;;;1.7;1;;;;;;;;;;;;;
2024/04/11 10:24:44;;;;;;;1.8;1;;;;;;;;;;;;;
2024/04/11 10:27:09;;;;;;;1.4;0.9;;;;;;;;;;;;;
2024/04/11 10:29:33;;;;;;;1.8;1;;;;;;;;;;;;;
2024/04/11 10:31:58;;;;;;;1.8;1;;;;;;;;;;;;;
2024/04/11 10:34:25;;;;;;;1.9;1;;;;;;;;;;;;;
2024/04/11 10:36:54;;;;;;;1.2;1.1;;;;;;;;;;;;;
2024/04/11 10:39:12;;;;;;;1.6;0.9;;;;;;;;;;;;;
2024/04/11 10:41:37;;;;;;;1.5;1;;;;;;;;;;;;;
2024/04/11 10:44:03;;;;;;;1.2;1;;;;;;;;;;;;;
2024/04/11 10:46:30;;;;;;;2.1;0.9;;;;;;;;;;;;;
2024/04/11 10:48:55;;;;;;;2.6;1;;;;;;;;;;;;;
2024/04/11 10:51:20;;;;;;;2.3;1.1;;;;;;;;;;;;;
2024/04/11 10:53:47;;;;;;;0.8;0.8;;;;;;;;;;;;;
2024/04/11 10:56:20;;;;;;;1.4;1.1;;;;;;;;;;;;;
2024/04/11 10:58:36;;;;;;;2.1;1;;;;;;;;;;;;;
2024/04/11 11:01:10;;;;;;;1.9;1;;;;;;;;;;;;;
2024/04/11 11:03:40;;;;;;;1.4;0.8;;;;;;;;;;;;;
2024/04/11 11:05:48;;;;;;;2.2;1.1;;;;;;;;;;;;;
2024/04/11 11:08:13;;;;;;;2.2;1.2;;;;;;;;;;;;;
2024/04/11 11:10:40;;;;;;;2.4;1;;;;;;;;;;;;;
2024/04/11 11:13:04;;;;;;;1.7;1;;;;;;;;;;;;;
2024/04/11 11:15:31;;;;;;;1.8;1.1;;;;;;;;;;;;;
2024/04/11 11:17:54;;;;;;;1.8;1;;;;;;;;;;;;;
2024/04/11 11:20:19;;;;;;;2.5;1.1;;;;;;;;;;;;;
2024/04/11 11:22:44;;;;;;;1.1;0.9;;;;;;;;;;;;;
2024/04/11 11:25:11;;;;;;;1.7;0.9;;;;;;;;;;;;;
2024/04/11 11:27:34;;;;;;;2.2;1.1;;;;;;;;;;;;;
2024/04/11 11:29:59;;;;;;;1.5;0.8;;;;;;;;;;;;;
2024/04/11 11:32:25;;;;;;;0.8;0.8;;;;;;;;;;;;;
2024/04/11 11:34:51;;;;;;;1.1;0.8;;;;;;;;;;;;;
2024/04/11 11:37:14;;;;;;;1.4;0.9;;;;;;;;;;;;;
2024/04/11 11:39:42;;;;;;;2.5;1.1;;;;;;;;;;;;;
2024/04/11 11:42:19;;;;;;;2.9;1.2;;;;;;;;;;;;;
2024/04/11 11:44:56;;;;;;;1.9;1.3;;;;;;;;;;;;;
2024/04/11 11:47:05;;;;;;;1.5;0.8;;;;;;;;;;;;;
2024/04/11 11:49:23;;;;;;;1;1;;;;;;;;;;;;;
2024/04/11 11:51:45;;;;;;;1.9;1;;;;;;;;;;;;;
2024/04/11 11:54:14;;;;;;;2.8;1.1;;;;;;;;;;;;;
2024/04/11 11:56:35;;;;;;;2.2;1.3;;;;;;;;;;;;;
2024/04/11 11:59:02;;;;;;;4.5;1.4;;;;;;;;;;;;;
2024/04/11 12:01:35;;;;;;;1.4;0.9;;;;;;;;;;;;;
2024/04/11 12:03:55;;;;;;;1.9;0.9;;;;;;;;;;;;;
2024/04/11 12:06:16;;;;;;;1.1;0.8;;;;;;;;;;;;;
2024/04/11 12:08:43;;;;;;;2;1.1;;;;;;;;;;;;;
2024/04/11 12:11:21;;;;;;;2;1;;;;;;;;;;;;;
2024/04/11 12:13:34;;;;;;;1.5;1.1;;;;;;;;;;;;;
2024/04/11 12:15:56;;;;;;;1.1;0.9;;;;;;;;;;;;;
2024/04/11 12:18:22;;;;;;;1.6;1;;;;;;;;;;;;;
2024/04/11 12:20:46;;;;;;;2.2;1.1;;;;;;;;;;;;;
2024/04/11 12:23:16;;;;;;;2;0.9;;;;;;;;;;;;;
2024/04/11 12:25:37;;;;;;;1.6;1;;;;;;;;;;;;;
2024/04/11 12:28:09;;;;;;;1.6;1;;;;;;;;;;;;;
2024/04/11 12:30:43;;;;;;;1.7;1.1;;;;;;;;;;;;;
2024/04/11 12:33:05;;;;;;;1.4;1;;;;;;;;;;;;;
2024/04/11 12:35:29;;;;;;;1.9;1.2;;;;;;;;;;;;;
2024/04/11 12:37:54;;;;;;;2.1;1;;;;;;;;;;;;;
2024/04/11 12:40:33;;;;;;;1.1;0.9;;;;;;;;;;;;;
2024/04/11 12:42:48;;;;;;;2.7;0.9;;;;;;;;;;;;;
2024/04/11 12:45:10;;;;;;;3.1;1;;;;;;;;;;;;;
2024/04/11 12:47:48;;;;;;;1.8;1;;;;;;;;;;;;;
2024/04/11 12:50:05;;;;;;;1.9;1.1;;;;;;;;;;;;;
2024/04/11 12:52:30;;;;;;;1.3;1;;;;;;;;;;;;;
2024/04/11 12:54:50;;;;;;;2;1;;;;;;;;;;;;;
2024/04/11 12:57:17;;;;;;;3.6;1.2;;;;;;;;;;;;;
2024/04/11 12:59:45;;;;;;;1.7;0.9;;;;;;;;;;;;;
2024/04/11 13:02:08;;;;;;;3;1;;;;;;;;;;;;;
2024/04/11 13:04:32;;;;;;;1.5;1;;;;;;;;;;;;;
2024/04/11 13:06:58;;;;;;;1.9;1;;;;;;;;;;;;;
2024/04/11 13:09:31;;;;;;;2.3;1.1;;;;;;;;;;;;;
2024/04/11 13:11:48;;;;;;;3.1;0.9;;;;;;;;;;;;;
2024/04/11 13:14:17;;;;;;;1;0.9;;;;;;;;;;;;;
2024/04/11 13:16:36;;;;;;;2.2;1;;;;;;;;;;;;;
2024/04/11 13:19:05;;;;;;;1.7;0.9;;;;;;;;;;;;;
2024/04/11 13:21:38;;;;;;;2.3;1;;;;;;;;;;;;;
2024/04/11 13:23:56;;;;;;;2.5;1;;;;;;;;;;;;;
2024/04/11 13:26:17;;;;;;;2.6;0.9;;;;;;;;;;;;;
2024/04/11 13:28:49;;;;;;;1.4;1.1;;;;;;;;;;;;;
2024/04/11 13:31:11;;;;;;;2.9;1.3;;;;;;;;;;;;;
2024/04/11 13:33:32;;;;;;;0.9;0.8;;;;;;;;;;;;;
2024/04/11 13:36:03;;;;;;;1.7;1.1;;;;;;;;;;;;;
2024/04/11 13:38:24;;;;;;;1.7;1.1;;;;;;;;;;;;;
2024/04/11 13:41:14;;;;;;;2.2;1.1;;;;;;;;;;;;;
2024/04/11 13:43:17;;;;;;;1.6;1.1;;;;;;;;;;;;;
2024/04/11 13:45:41;;;;;;;1.5;1;;;;;;;;;;;;;
2024/04/11 13:48:03;;;;;;;3.5;1.4;;;;;;;;;;;;;
2024/04/11 13:50:43;;;;;;;3.1;1.2;;;;;;;;;;;;;
2024/04/11 13:52:53;;;;;;;1.9;1;;;;;;;;;;;;;
2024/04/11 13:55:21;;;;;;;3.5;1.2;;;;;;;;;;;;;
2024/04/11 13:57:46;;;;;;;1.6;0.9;;;;;;;;;;;;;
2024/04/11 14:00:09;;;;;;;3;1.1;;;;;;;;;;;;;
2024/04/11 14:02:46;;;;;;;2;1;;;;;;;;;;;;;
2024/04/11 14:05:08;;;;;;;1.5;1.1;;;;;;;;;;;;;
2024/04/11 14:07:27;;;;;;;3;1;;;;;;;;;;;;;
2024/04/11 14:09:51;;;;;;;1.4;1;;;;;;;;;;;;;
2024/04/11 14:12:16;;;;;;;1.8;1;;;;;;;;;;;;;
2024/04/11 14:14:39;;;;;;;1.1;0.8;;;;;;;;;;;;;
2024/04/11 14:17:06;;;;;;;2.1;1.3;;;;;;;;;;;;;
2024/04/11 14:19:38;;;;;;;1.7;1;;;;;;;;;;;;;
2024/04/11 14:22:08;;;;;;;1.7;0.9;;;;;;;;;;;;;
2024/04/11 14:24:34;;;;;;;2;1.1;;;;;;;;;;;;;
2024/04/11 14:26:58;;;;;;;2.7;1.2;;;;;;;;;;;;;
2024/04/11 14:29:10;;;;;;;1.8;1.1;;;;;;;;;;;;;
2024/04/11 14:31:35;;;;;;;1.9;1.2;;;;;;;;;;;;;
2024/04/11 14:36:27;;;;;;;2.8;1;;;;;;;;;;;;;
2024/04/11 14:38:50;;;;;;;1.4;1.1;;;;;;;;;;;;;
2024/04/11 14:41:16;;;;;;;1.9;1;;;;;;;;;;;;;
2024/04/11 14:43:48;;;;;;;1.5;0.9;;;;;;;;;;;;;
2024/04/11 14:46:05;;;;;;;2.3;1.1;;;;;;;;;;;;;
2024/04/11 14:48:36;;;;;;;2.3;1.2;;;;;;;;;;;;;
2024/04/11 14:50:58;;;;;;;3.9;1.1;;;;;;;;;;;;;
2024/04/11 14:53:22;;;;;;;1.9;1.1;;;;;;;;;;;;;
2024/04/11 14:55:46;;;;;;;1.9;1.3;;;;;;;;;;;;;
2024/04/11 14:58:11;;;;;;;2;1;;;;;;;;;;;;;
2024/04/11 15:00:46;;;;;;;2.1;1.2;;;;;;;;;;;;;
2024/04/11 15:03:02;;;;;;;3.5;1.2;;;;;;;;;;;;;
2024/04/11 15:05:26;;;;;;;2.8;1.2;;;;;;;;;;;;;
2024/04/11 15:07:53;;;;;;;3.5;1.3;;;;;;;;;;;;;
2024/04/11 15:10:20;;;;;;;2.1;1.3;;;;;;;;;;;;;
2024/04/11 15:12:42;;;;;;;1.3;1.2;;;;;;;;;;;;;
2024/04/11 15:15:14;;;;;;;2.5;1.2;;;;;;;;;;;;;
2024/04/11 15:17:41;;;;;;;2.2;1.3;;;;;;;;;;;;;
2024/04/11 15:19:57;;;;;;;2.4;1;;;;;;;;;;;;;
2024/04/11 15:22:25;;;;;;;1.5;1.1;;;;;;;;;;;;;
2024/04/11 15:24:49;;;;;;;2.6;1.1;;;;;;;;;;;;;
2024/04/11 15:27:13;;;;;;;10.3;4.4;;;;;;;;;;;;;
2024/04/11 15:29:57;;;;;;;7.2;4.5;;;;;;;;;;;;;
2024/04/11 15:32:16;;;;;;;15.1;5.2;;;;;;;;;;;;;
2024/04/11 15:34:29;;;;;;;9.7;3.4;;;;;;;;;;;;;
2024/04/11 15:37:03;;;;;;;4.8;2.7;;;;;;;;;;;;;
2024/04/11 15:39:18;;;;;;;6.3;3.1;;;;;;;;;;;;;
2024/04/11 15:41:45;;;;;;;7.1;3.1;;;;;;;;;;;;;
2024/04/11 15:44:10;;;;;;;4.8;2.2;;;;;;;;;;;;;
2024/04/11 15:46:39;;;;;;;6.3;2.7;;;;;;;;;;;;;
2024/04/11 15:49:07;;;;;;;5.7;2.9;;;;;;;;;;;;;
2024/04/11 15:51:24;;;;;;;4.9;2.7;;;;;;;;;;;;;
2024/04/11 15:53:56;;;;;;;3.9;2.1;;;;;;;;;;;;;
2024/04/11 15:56:14;;;;;;;6.6;3.1;;;;;;;;;;;;;
2024/04/11 15:58:52;;;;;;;3.1;1.8;;;;;;;;;;;;;
2024/04/11 16:01:10;;;;;;;3.8;2;;;;;;;;;;;;;
2024/04/11 16:03:36;;;;;;;3.9;2.1;;;;;;;;;;;;;
2024/04/11 16:05:57;;;;;;;4.6;2.3;;;;;;;;;;;;;
2024/04/11 16:08:22;;;;;;;3.9;2;;;;;;;;;;;;;
2024/04/11 16:10:45;;;;;;;3.9;1.8;;;;;;;;;;;;;
2024/04/11 16:13:24;;;;;;;4.1;1.6;;;;;;;;;;;;;
2024/04/11 16:15:38;;;;;;;4.9;1.9;;;;;;;;;;;;;
2024/04/11 16:18:06;;;;;;;3.1;1.6;;;;;;;;;;;;;
2024/04/11 16:20:31;;;;;;;2.7;1.1;;;;;;;;;;;;;
2024/04/11 16:22:56;;;;;;;1.7;1.1;;;;;;;;;;;;;
2024/04/11 16:25:21;;;;;;;2;1.2;;;;;;;;;;;;;
2024/04/11 16:27:43;;;;;;;2.5;1.5;;;;;;;;;;;;;
2024/04/11 16:30:28;;;;;;;1.4;1.2;;;;;;;;;;;;;
2024/04/11 16:32:39;;;;;;;1.9;1.5;;;;;;;;;;;;;
2024/04/11 16:35:00;;;;;;;2.1;1.2;;;;;;;;;;;;;
2024/04/11 16:37:26;;;;;;;7.2;2;;;;;;;;;;;;;
2024/04/11 16:39:51;;;;;;;4.1;1.4;;;;;;;;;;;;;
2024/04/11 16:42:22;;;;;;;2.2;1.5;;;;;;;;;;;;;
2024/04/11 16:44:48;;;;;;;4.2;1.6;;;;;;;;;;;;;
2024/04/11 16:47:07;;;;;;;2.7;1.7;;;;;;;;;;;;;
2024/04/11 16:49:35;;;;;;;2.6;1.5;;;;;;;;;;;;;
2024/04/11 16:51:55;;;;;;;3.7;1.9;;;;;;;;;;;;;
2024/04/11 16:54:28;;;;;;;3;1.8;;;;;;;;;;;;;
2024/04/11 16:56:48;;;;;;;2.5;1.5;;;;;;;;;;;;;
2024/04/11 16:59:10;;;;;;;1.6;1.4;;;;;;;;;;;;;
2024/04/11 17:01:36;;;;;;;3.6;1.5;;;;;;;;;;;;;
2024/04/11 17:04:05;;;;;;;3.2;1.8;;;;;;;;;;;;;
2024/04/11 17:06:26;;;;;;;2.6;1.3;;;;;;;;;;;;;
2024/04/11 17:08:55;;;;;;;3.4;1.4;;;;;;;;;;;;;
2024/04/11 17:11:20;;;;;;;3.3;1.7;;;;;;;;;;;;;
2024/04/11 17:13:44;;;;;;;2.8;1.4;;;;;;;;;;;;;
2024/04/11 17:16:17;;;;;;;4.4;1.5;;;;;;;;;;;;;
2024/04/11 17:18:51;;;;;;;2.5;1.4;;;;;;;;;;;;;
2024/04/11 17:21:10;;;;;;;2.5;1.7;;;;;;;;;;;;;
2024/04/11 17:23:22;;;;;;;2.5;1.2;;;;;;;;;;;;;
2024/04/11 17:25:47;;;;;;;2.3;1.2;;;;;;;;;;;;;
2024/04/11 17:28:18;;;;;;;2.4;1.4;;;;;;;;;;;;;
2024/04/11 17:31:01;;;;;;;3.1;1.3;;;;;;;;;;;;;
2024/04/11 17:33:10;;;;;;;1.9;1.3;;;;;;;;;;;;;
2024/04/11 17:35:48;;;;;;;7.4;4.2;;;;;;;;;;;;;
2024/04/11 17:38:01;;;;;;;5.7;2.6;;;;;;;;;;;;;
2024/04/11 17:42:57;;;;;;;3;1.4;;;;;;;;;;;;;
2024/04/11 17:45:14;;;;;;;4.8;2.8;;;;;;;;;;;;;
2024/04/11 17:47:38;;;;;;;2.2;1.5;;;;;;;;;;;;;
2024/04/11 17:50:00;;;;;;;2;1.3;;;;;;;;;;;;;
2024/04/11 17:52:27;;;;;;;2.8;1.3;;;;;;;;;;;;;
2024/04/11 17:54:49;;;;;;;3.5;2.4;;;;;;;;;;;;;
2024/04/11 17:57:14;;;;;;;3.4;2;;;;;;;;;;;;;
2024/04/11 17:59:39;;;;;;;2.1;1.3;;;;;;;;;;;;;
2024/04/11 18:02:04;;;;;;;2.8;1.3;;;;;;;;;;;;;
2024/04/11 18:04:30;;;;;;;1.5;1.3;;;;;;;;;;;;;
2024/04/11 18:06:54;;;;;;;4.7;1.8;;;;;;;;;;;;;
2024/04/11 18:09:27;;;;;;;4.4;2.1;;;;;;;;;;;;;
2024/04/11 18:11:56;;;;;;;3.3;1.7;;;;;;;;;;;;;
2024/04/11 18:14:09;;;;;;;4.3;1.6;;;;;;;;;;;;;
2024/04/11 18:16:36;;;;;;;1.6;1.3;;;;;;;;;;;;;
2024/04/11 18:19:00;;;;;;;1.8;1.5;;;;;;;;;;;;;
2024/04/11 18:21:25;;;;;;;3.5;1.4;;;;;;;;;;;;;
2024/04/11 18:23:50;;;;;;;2.5;1.2;;;;;;;;;;;;;
2024/04/11 18:26:16;;;;;;;3.2;1.5;;;;;;;;;;;;;
2024/04/11 18:28:43;;;;;;;4.5;2.1;;;;;;;;;;;;;
2024/04/11 18:31:16;;;;;;;6.3;2.6;;;;;;;;;;;;;
2024/04/11 18:33:30;;;;;;;5.4;3;;;;;;;;;;;;;
2024/04/11 18:35:56;;;;;;;3.4;2.6;;;;;;;;;;;;;
2024/04/11 18:38:23;;;;;;;4.3;2.3;;;;;;;;;;;;;
2024/04/11 18:40:54;;;;;;;3.7;2.3;;;;;;;;;;;;;
2024/04/11 18:43:22;;;;;;;2.4;2.2;;;;;;;;;;;;;
2024/04/11 18:45:36;;;;;;;3.9;2.4;;;;;;;;;;;;;
2024/04/11 18:48:06;;;;;;;3.6;2.5;;;;;;;;;;;;;
2024/04/11 18:50:27;;;;;;;5.1;2.3;;;;;;;;;;;;;
2024/04/11 18:52:52;;;;;;;3.7;2.2;;;;;;;;;;;;;
2024/04/11 18:55:19;;;;;;;2.3;1.6;;;;;;;;;;;;;
2024/04/11 18:57:42;;;;;;;3.8;1.6;;;;;;;;;;;;;
2024/04/11 19:00:09;;;;;;;5.7;2.8;;;;;;;;;;;;;
2024/04/11 19:02:33;;;;;;;5.2;2.3;;;;;;;;;;;;;
2024/04/11 19:05:08;;;;;;;3.4;1.9;;;;;;;;;;;;;
2024/04/11 19:07:23;;;;;;;4.5;2.2;;;;;;;;;;;;;
2024/04/11 19:10:04;;;;;;;2.5;1.7;;;;;;;;;;;;;
2024/04/11 19:12:13;;;;;;;6.3;3.5;;;;;;;;;;;;;
2024/04/11 19:14:40;;;;;;;4.2;2.7;;;;;;;;;;;;;
2024/04/11 19:17:03;;;;;;;3.9;2.4;;;;;;;;;;;;;
2024/04/11 19:19:27;;;;;;;4.8;2.1;;;;;;;;;;;;;
2024/04/11 19:21:55;;;;;;;2.8;2.3;;;;;;;;;;;;;
2024/04/11 19:24:18;;;;;;;3.5;2.7;;;;;;;;;;;;;
2024/04/11 19:26:44;;;;;;;7.6;3.3;;;;;;;;;;;;;
2024/04/11 19:29:08;;;;;;;13.2;11.2;;;;;;;;;;;;;
2024/04/11 19:31:42;;;;;;;16;13;;;;;;;;;;;;;
2024/04/11 19:34:03;;;;;;;16.5;14.1;;;;;;;;;;;;;
2024/04/11 19:36:24;;;;;;;7.5;5.4;;;;;;;;;;;;;
2024/04/11 19:38:48;;;;;;;6.4;4.2;;;;;;;;;;;;;
2024/04/11 19:41:16;;;;;;;4.1;2.4;;;;;;;;;;;;;
2024/04/11 19:43:41;;;;;;;3.1;2.4;;;;;;;;;;;;;
2024/04/11 19:46:06;;;;;;;3.9;2.8;;;;;;;;;;;;;
2024/04/11 19:48:29;;;;;;;5.2;2.8;;;;;;;;;;;;;
2024/04/11 19:50:55;;;;;;;3.5;2.4;;;;;;;;;;;;;
2024/04/11 19:53:20;;;;;;;5.5;2.6;;;;;;;;;;;;;
2024/04/11 19:55:52;;;;;;;3.5;2.5;;;;;;;;;;;;;
2024/04/11 19:58:11;;;;;;;4.4;2.7;;;;;;;;;;;;;
2024/04/11 20:00:43;;;;;;;4.4;2.8;;;;;;;;;;;;;
2024/04/11 20:03:15;;;;;;;5.3;2.5;;;;;;;;;;;;;
2024/04/11 20:05:25;;;;;;;3.6;2.8;;;;;;;;;;;;;
2024/04/11 20:07:49;;;;;;;3.5;2.6;;;;;;;;;;;;;
2024/04/11 20:10:20;;;;;;;4.1;2.6;;;;;;;;;;;;;
2024/04/11 20:12:41;;;;;;;4.2;2.8;;;;;;;;;;;;;
2024/04/11 20:15:29;;;;;;;4.7;2.8;;;;;;;;;;;;;
2024/04/11 20:17:30;;;;;;;4.8;3;;;;;;;;;;;;;
2024/04/11 20:19:58;;;;;;;4.3;3.1;;;;;;;;;;;;;
2024/04/11 20:22:20;;;;;;;5.4;3.1;;;;;;;;;;;;;
2024/04/11 20:24:53;;;;;;;5.5;3.3;;;;;;;;;;;;;
2024/04/11 20:27:11;;;;;;;2.9;2.5;;;;;;;;;;;;;
2024/04/11 20:29:36;;;;;;;5;2.8;;;;;;;;;;;;;
2024/04/11 20:32:03;;;;;;;5.3;2.7;;;;;;;;;;;;;
2024/04/11 20:34:28;;;;;;;6.7;2.4;;;;;;;;;;;;;
2024/04/11 20:36:51;;;;;;;3.4;2.3;;;;;;;;;;;;;
2024/04/11 20:39:24;;;;;;;5;3.2;;;;;;;;;;;;;